MSC Maeva — H9TF — position and weather

sailwx.info

Track history (hours):
 
Tides and Currents Weather Stations Pressure Air Temp Water Temp Dewpoint Dewpoint Depression Visibility Wind Speed Wind Dir Waves Ship Positions

MSC Maeva

Last reported at 2017-Mar-18 00:18 UTC. Time now 2017-Mar-30 02:50 UTC.
Position N 31°27' E 032°19'.
Warning: this ship's position is 12 days out of date.

Type: Ship (hazmat cat A). MMSI: 371851000.

Date/timePositionNaut miles runAvg speedWind from/ knotsBaromVisibWave heightAir tempDewpointWater temp
2017-Mar-18 00:18N 31°27' E 032°19'0 0.1
2017-Mar-17 23:21N 31°27' E 032°19'0 0.0
2017-Mar-17 21:33N 31°27' E 032°19'  
2017-Mar-15 16:12N 36°16' E 014°50'1218.3
2017-Mar-15 15:33N 36°20' E 014°35'1818.2
2017-Mar-15 14:33N 36°25' E 014°14'1818.4
2017-Mar-15 13:33N 36°31' E 013°52'93017.9
2017-Mar-13 09:33N 35°59' W 005°20'2019.8
2017-Mar-13 08:33N 35°54' W 005°44'19413.9
2017-Mar-12 18:33N 37°33' W 009°12'1918.7
2017-Mar-12 17:33N 37°48' W 008°57'10 9.2
2017-Mar-12 16:31N 37°56' W 008°51'0 0.0
2017-Mar-12 15:31N 37°56' W 008°51'0 0.0
2017-Mar-12 14:31N 37°56' W 008°51'0 0.0
2017-Mar-12 13:31N 37°56' W 008°51'0 0.0
2017-Mar-12 12:30N 37°56' W 008°51'0 0.0
2017-Mar-12 11:33N 37°56' W 008°51'0 0.0
2017-Mar-12 10:30N 37°56' W 008°51'0 0.0
2017-Mar-12 09:33N 37°56' W 008°51'0 0.0
2017-Mar-12 08:33N 37°56' W 008°51'0 0.0
2017-Mar-12 07:33N 37°56' W 008°51'0 0.0
2017-Mar-12 06:33N 37°56' W 008°51'0 0.0
2017-Mar-12 05:33N 37°56' W 008°51'0 0.0
2017-Mar-12 04:33N 37°56' W 008°51'0 0.0
2017-Mar-12 03:33N 37°56' W 008°51'0 0.0
2017-Mar-12 02:33N 37°56' W 008°51'0 0.0
2017-Mar-12 01:33N 37°56' W 008°51'0 0.0
2017-Mar-12 00:30N 37°56' W 008°51'0 0.0
2017-Mar-11 23:33N 37°56' W 008°51'0 0.0
2017-Mar-11 22:33N 37°56' W 008°51'0 0.0
2017-Mar-11 21:33N 37°56' W 008°51'0 0.0
2017-Mar-11 20:33N 37°56' W 008°51'0 0.0
2017-Mar-11 19:33N 37°56' W 008°51'0 0.0
2017-Mar-11 18:30N 37°56' W 008°51'0 0.0
2017-Mar-11 17:33N 37°56' W 008°51'0 0.0
2017-Mar-11 16:33N 37°56' W 008°51'0 0.0
2017-Mar-11 15:33N 37°56' W 008°51'0 0.2
2017-Mar-11 14:33N 37°56' W 008°51'4 4.0
2017-Mar-11 13:33N 37°52' W 008°52'1110.5
2017-Mar-11 12:33N 37°45' W 009°03'2 1.7
2017-Mar-11 11:33N 37°45' W 009°05'1 0.9
2017-Mar-11 10:33N 37°46' W 009°05'1 1.1
2017-Mar-11 09:33N 37°47' W 009°06'1 1.1
2017-Mar-11 08:33N 37°47' W 009°07'1 1.0
2017-Mar-11 07:33N 37°48' W 009°08'1 0.7
2017-Mar-11 06:33N 37°48' W 009°09'1 0.6
2017-Mar-11 05:33N 37°48' W 009°09'1 0.6
2017-Mar-11 04:33N 37°49' W 009°10'0 0.3
2017-Mar-11 03:33N 37°49' W 009°10'0 0.1
2017-Mar-11 02:33N 37°49' W 009°10'0 0.0
2017-Mar-11 01:33N 37°49' W 009°10'0 0.2
2017-Mar-11 00:33N 37°49' W 009°10'0 0.3
2017-Mar-10 23:33N 37°49' W 009°11'1 0.7
2017-Mar-10 22:33N 37°50' W 009°11'1 0.8
2017-Mar-10 21:33N 37°50' W 009°12'1 0.6
2017-Mar-10 20:33N 37°50' W 009°13'1 1.0
2017-Mar-10 19:33N 37°49' W 009°12'7 6.6
2017-Mar-10 18:33N 37°44' W 009°07'0 0.4
2017-Mar-10 17:33N 37°44' W 009°08'1 0.6
2017-Mar-10 16:33N 37°44' W 009°08'1 0.6
2017-Mar-10 15:33N 37°45' W 009°09'1 0.5
2017-Mar-10 14:33N 37°45' W 009°09'0 0.4
2017-Mar-10 13:33N 37°46' W 009°09'0 0.3
2017-Mar-10 12:33N 37°46' W 009°10'1 0.6
2017-Mar-10 11:33N 37°46' W 009°10'1 0.6
2017-Mar-10 10:33N 37°47' W 009°10'1 0.5
2017-Mar-10 09:33N 37°47' W 009°11'0 0.5
2017-Mar-10 08:33N 37°47' W 009°11'0 0.4
2017-Mar-10 07:33N 37°48' W 009°12'0 0.3
2017-Mar-10 06:33N 37°48' W 009°12'0 0.1
2017-Mar-10 05:33N 37°48' W 009°12'0 0.1
2017-Mar-10 04:33N 37°48' W 009°12'0 0.2
2017-Mar-10 03:33N 37°48' W 009°13'0 0.2
2017-Mar-10 02:33N 37°48' W 009°12'0 0.2
2017-Mar-10 01:33N 37°48' W 009°12'0 0.3
2017-Mar-10 00:33N 37°48' W 009°12'0 0.5
2017-Mar-09 23:33N 37°49' W 009°12'1 0.8
2017-Mar-09 22:33N 37°49' W 009°11'1 0.9
2017-Mar-09 21:33N 37°50' W 009°11'1 0.9
2017-Mar-09 20:33N 37°51' W 009°12'1 1.1
2017-Mar-09 19:33N 37°52' W 009°13'7 6.9
2017-Mar-09 18:33N 37°51' W 009°22'7 6.7
2017-Mar-09 17:33N 37°49' W 009°30'7 6.8
2017-Mar-09 16:33N 37°47' W 009°38'7 6.7
2017-Mar-09 15:33N 37°46' W 009°46'7 6.8
2017-Mar-09 14:33N 37°45' W 009°55'7 6.6
2017-Mar-09 13:33N 37°43' W 010°03'6 6.2
2017-Mar-09 12:33N 37°42' W 010°11'6 6.2
2017-Mar-09 11:33N 37°41' W 010°18'7 6.1
2017-Mar-09 10:26N 37°40' W 010°27'5 6.0
2017-Mar-09 09:33N 37°38' W 010°33'6 6.0
2017-Mar-09 08:33N 37°37' W 010°41'6 6.0
2017-Mar-09 07:33N 37°36' W 010°48'6 6.1
2017-Mar-09 06:33N 37°35' W 010°56'7 6.5
2017-Mar-09 05:33N 37°33' W 011°04'6 6.4
2017-Mar-09 04:33N 37°32' W 011°12'7 6.5
2017-Mar-09 03:33N 37°30' W 011°20'7 6.6
2017-Mar-09 02:33N 37°29' W 011°28'6 6.5
2017-Mar-09 01:33N 37°28' W 011°36'6 6.4
2017-Mar-09 00:33N 37°27' W 011°44'6 6.5
2017-Mar-08 23:33N 37°26' W 011°52'6 6.5
2017-Mar-08 22:33N 37°24' W 011°60'6 6.4
2017-Mar-08 21:33N 37°23' W 012°08'9 6.3
2017-Mar-08 20:07N 37°21' W 012°19'3 6.1
2017-Mar-08 19:33N 37°20' W 012°23'6 6.0
2017-Mar-08 18:31N 37°19' W 012°31'6 5.8
2017-Mar-08 17:33N 37°18' W 012°38'14 5.9
2017-Mar-08 15:14N 37°15' W 012°54'4 6.1
2017-Mar-08 14:33N 37°14' W 012°59'6 6.1
2017-Mar-08 13:33N 37°13' W 013°07'6 6.0
2017-Mar-08 12:33N 37°12' W 013°14'7 6.0
2017-Mar-08 11:28N 37°10' W 013°22'6 6.1
2017-Mar-08 10:33N 37°09' W 013°29'8 6.1
2017-Mar-08 09:16N 37°07' W 013°39'2914.6
2017-Mar-08 07:18N 37°02' W 014°14'  
Track history (hours):
 
Tides and Currents Weather Stations Pressure Air Temp Water Temp Dewpoint Dewpoint Depression Visibility Wind Speed Wind Dir Waves Ship Positions

MSC Maeva

Last reported at 2017-Mar-18 00:18 UTC. Time now 2017-Mar-30 02:50 UTC.
Position N 31°27' E 032°19'.
Warning: this ship's position is 12 days out of date.

Type: Ship (hazmat cat A). MMSI: 371851000.

Date/timePositionNaut miles runAvg speedWind from/ knotsBaromVisibWave heightAir tempDewpointWater temp
2017-Mar-18 00:18N 31°27' E 032°19'0 0.1
2017-Mar-17 23:21N 31°27' E 032°19'0 0.0
2017-Mar-17 21:33N 31°27' E 032°19'  
2017-Mar-15 16:12N 36°16' E 014°50'1218.3
2017-Mar-15 15:33N 36°20' E 014°35'1818.2
2017-Mar-15 14:33N 36°25' E 014°14'1818.4
2017-Mar-15 13:33N 36°31' E 013°52'93017.9
2017-Mar-13 09:33N 35°59' W 005°20'2019.8
2017-Mar-13 08:33N 35°54' W 005°44'19413.9
2017-Mar-12 18:33N 37°33' W 009°12'1918.7
2017-Mar-12 17:33N 37°48' W 008°57'10 9.2
2017-Mar-12 16:31N 37°56' W 008°51'0 0.0
2017-Mar-12 15:31N 37°56' W 008°51'0 0.0
2017-Mar-12 14:31N 37°56' W 008°51'0 0.0
2017-Mar-12 13:31N 37°56' W 008°51'0 0.0
2017-Mar-12 12:30N 37°56' W 008°51'0 0.0
2017-Mar-12 11:33N 37°56' W 008°51'0 0.0
2017-Mar-12 10:30N 37°56' W 008°51'0 0.0
2017-Mar-12 09:33N 37°56' W 008°51'0 0.0
2017-Mar-12 08:33N 37°56' W 008°51'0 0.0
2017-Mar-12 07:33N 37°56' W 008°51'0 0.0
2017-Mar-12 06:33N 37°56' W 008°51'0 0.0
2017-Mar-12 05:33N 37°56' W 008°51'0 0.0
2017-Mar-12 04:33N 37°56' W 008°51'0 0.0
2017-Mar-12 03:33N 37°56' W 008°51'0 0.0
2017-Mar-12 02:33N 37°56' W 008°51'0 0.0
2017-Mar-12 01:33N 37°56' W 008°51'0 0.0
2017-Mar-12 00:30N 37°56' W 008°51'0 0.0
2017-Mar-11 23:33N 37°56' W 008°51'0 0.0
2017-Mar-11 22:33N 37°56' W 008°51'0 0.0
2017-Mar-11 21:33N 37°56' W 008°51'0 0.0
2017-Mar-11 20:33N 37°56' W 008°51'0 0.0
2017-Mar-11 19:33N 37°56' W 008°51'0 0.0
2017-Mar-11 18:30N 37°56' W 008°51'0 0.0
2017-Mar-11 17:33N 37°56' W 008°51'0 0.0
2017-Mar-11 16:33N 37°56' W 008°51'0 0.0
2017-Mar-11 15:33N 37°56' W 008°51'0 0.2
2017-Mar-11 14:33N 37°56' W 008°51'4 4.0
2017-Mar-11 13:33N 37°52' W 008°52'1110.5
2017-Mar-11 12:33N 37°45' W 009°03'2 1.7
2017-Mar-11 11:33N 37°45' W 009°05'1 0.9
2017-Mar-11 10:33N 37°46' W 009°05'1 1.1
2017-Mar-11 09:33N 37°47' W 009°06'1 1.1
2017-Mar-11 08:33N 37°47' W 009°07'1 1.0
2017-Mar-11 07:33N 37°48' W 009°08'1 0.7
2017-Mar-11 06:33N 37°48' W 009°09'1 0.6
2017-Mar-11 05:33N 37°48' W 009°09'1 0.6
2017-Mar-11 04:33N 37°49' W 009°10'0 0.3
2017-Mar-11 03:33N 37°49' W 009°10'0 0.1
2017-Mar-11 02:33N 37°49' W 009°10'0 0.0
2017-Mar-11 01:33N 37°49' W 009°10'0 0.2
2017-Mar-11 00:33N 37°49' W 009°10'0 0.3
2017-Mar-10 23:33N 37°49' W 009°11'1 0.7
2017-Mar-10 22:33N 37°50' W 009°11'1 0.8
2017-Mar-10 21:33N 37°50' W 009°12'1 0.6
2017-Mar-10 20:33N 37°50' W 009°13'1 1.0
2017-Mar-10 19:33N 37°49' W 009°12'7 6.6
2017-Mar-10 18:33N 37°44' W 009°07'0 0.4
2017-Mar-10 17:33N 37°44' W 009°08'1 0.6
2017-Mar-10 16:33N 37°44' W 009°08'1 0.6
2017-Mar-10 15:33N 37°45' W 009°09'1 0.5
2017-Mar-10 14:33N 37°45' W 009°09'0 0.4
2017-Mar-10 13:33N 37°46' W 009°09'0 0.3
2017-Mar-10 12:33N 37°46' W 009°10'1 0.6
2017-Mar-10 11:33N 37°46' W 009°10'1 0.6
2017-Mar-10 10:33N 37°47' W 009°10'1 0.5
2017-Mar-10 09:33N 37°47' W 009°11'0 0.5
2017-Mar-10 08:33N 37°47' W 009°11'0 0.4
2017-Mar-10 07:33N 37°48' W 009°12'0 0.3
2017-Mar-10 06:33N 37°48' W 009°12'0 0.1
2017-Mar-10 05:33N 37°48' W 009°12'0 0.1
2017-Mar-10 04:33N 37°48' W 009°12'0 0.2
2017-Mar-10 03:33N 37°48' W 009°13'0 0.2
2017-Mar-10 02:33N 37°48' W 009°12'0 0.2
2017-Mar-10 01:33N 37°48' W 009°12'0 0.3
2017-Mar-10 00:33N 37°48' W 009°12'0 0.5
2017-Mar-09 23:33N 37°49' W 009°12'1 0.8
2017-Mar-09 22:33N 37°49' W 009°11'1 0.9
2017-Mar-09 21:33N 37°50' W 009°11'1 0.9
2017-Mar-09 20:33N 37°51' W 009°12'1 1.1
2017-Mar-09 19:33N 37°52' W 009°13'7 6.9
2017-Mar-09 18:33N 37°51' W 009°22'7 6.7
2017-Mar-09 17:33N 37°49' W 009°30'7 6.8
2017-Mar-09 16:33N 37°47' W 009°38'7 6.7
2017-Mar-09 15:33N 37°46' W 009°46'7 6.8
2017-Mar-09 14:33N 37°45' W 009°55'7 6.6
2017-Mar-09 13:33N 37°43' W 010°03'6 6.2
2017-Mar-09 12:33N 37°42' W 010°11'6 6.2
2017-Mar-09 11:33N 37°41' W 010°18'7 6.1
2017-Mar-09 10:26N 37°40' W 010°27'5 6.0
2017-Mar-09 09:33N 37°38' W 010°33'6 6.0
2017-Mar-09 08:33N 37°37' W 010°41'6 6.0
2017-Mar-09 07:33N 37°36' W 010°48'6 6.1
2017-Mar-09 06:33N 37°35' W 010°56'7 6.5
2017-Mar-09 05:33N 37°33' W 011°04'6 6.4
2017-Mar-09 04:33N 37°32' W 011°12'7 6.5
2017-Mar-09 03:33N 37°30' W 011°20'7 6.6
2017-Mar-09 02:33N 37°29' W 011°28'6 6.5
2017-Mar-09 01:33N 37°28' W 011°36'6 6.4
2017-Mar-09 00:33N 37°27' W 011°44'6 6.5
2017-Mar-08 23:33N 37°26' W 011°52'6 6.5
2017-Mar-08 22:33N 37°24' W 011°60'6 6.4
2017-Mar-08 21:33N 37°23' W 012°08'9 6.3
2017-Mar-08 20:07N 37°21' W 012°19'3 6.1
2017-Mar-08 19:33N 37°20' W 012°23'6 6.0
2017-Mar-08 18:31N 37°19' W 012°31'6 5.8
2017-Mar-08 17:33N 37°18' W 012°38'14 5.9
2017-Mar-08 15:14N 37°15' W 012°54'4 6.1
2017-Mar-08 14:33N 37°14' W 012°59'6 6.1
2017-Mar-08 13:33N 37°13' W 013°07'6 6.0
2017-Mar-08 12:33N 37°12' W 013°14'7 6.0
2017-Mar-08 11:28N 37°10' W 013°22'6 6.1
2017-Mar-08 10:33N 37°09' W 013°29'8 6.1
2017-Mar-08 09:16N 37°07' W 013°39'2914.6
2017-Mar-08 07:18N 37°02' W 014°14'  

Dump ship's entire track history